createdAt,value
2022-11-05T00:00:43.887Z,99119.13
2022-11-05T00:03:37.143Z,99265.94
2022-11-05T00:06:25.567Z,99272.91
2022-11-05T00:09:13.517Z,99246.59
2022-11-05T00:12:00.697Z,99271.53
2022-11-05T00:14:48.480Z,99260.41
2022-11-05T00:17:17.120Z,99256.16
2022-11-05T00:19:45.783Z,99251.19
2022-11-05T00:22:32.776Z,99290.63
2022-11-05T00:25:19.503Z,99297.66
2022-11-05T00:27:53.299Z,99284.06
2022-11-05T00:30:24.927Z,99280.81
2022-11-05T00:32:54.374Z,99267.22
2022-11-05T00:35:23.589Z,99291.13
2022-11-05T00:37:55.027Z,99237.41
2022-11-05T00:40:23.856Z,99255.50
2022-11-05T00:43:11.210Z,99302.53
2022-11-05T00:45:41.661Z,99274.44
2022-11-05T00:48:28.800Z,99253.09
2022-11-05T00:50:57.611Z,99265.13
2022-11-05T00:53:26.246Z,99238.63
2022-11-05T00:55:55.438Z,99269.47
2022-11-05T00:58:24.777Z,99293.53
2022-11-05T01:00:58.657Z,99309.88
2022-11-05T01:03:36.274Z,99308.13
2022-11-05T01:06:11.849Z,99262.88
2022-11-05T01:08:41.562Z,99320.38
2022-11-05T01:11:39.377Z,99295.56
2022-11-05T01:14:11.124Z,99302.50
2022-11-05T01:16:40.892Z,99294.81
2022-11-05T01:19:11.227Z,99292.91
2022-11-05T01:21:39.965Z,99234.81
2022-11-05T01:24:09.065Z,99292.84
2022-11-05T01:26:37.737Z,99291.91
2022-11-05T01:29:06.573Z,99294.44
2022-11-05T01:31:35.180Z,99314.91
2022-11-05T01:34:03.933Z,99307.03
2022-11-05T01:36:32.541Z,99315.59
2022-11-05T01:39:02.649Z,99311.34
2022-11-05T01:41:31.242Z,99319.91
2022-11-05T01:44:00.760Z,99288.22
2022-11-05T01:46:35.226Z,99300.19
2022-11-05T01:49:35.238Z,99317.25
2022-11-05T01:52:05.725Z,99301.03
2022-11-05T01:54:36.793Z,99267.66
2022-11-05T01:57:08.528Z,99290.69
2022-11-05T01:59:42.467Z,99248.78
2022-11-05T02:02:11.688Z,99313.69
2022-11-05T02:04:54.800Z,99322.19
2022-11-05T02:07:26.689Z,99282.88
2022-11-05T02:10:06.028Z,99337.66
2022-11-05T02:12:35.553Z,99299.94
2022-11-05T02:15:04.338Z,99308.38
2022-11-05T02:18:00.447Z,99334.94
2022-11-05T02:20:52.753Z,99336.72
2022-11-05T02:23:27.557Z,99334.97
2022-11-05T02:25:59.195Z,99328.97
2022-11-05T02:29:15.148Z,99338.56
2022-11-05T02:32:02.549Z,99332.38
2022-11-05T02:34:40.546Z,99336.69
2022-11-05T02:38:01.026Z,99338.44
2022-11-05T02:40:46.478Z,99310.88
2022-11-05T02:43:30.610Z,99327.88
2022-11-05T02:46:39.176Z,99325.28
2022-11-05T02:49:33.890Z,99323.69
2022-11-05T02:52:12.603Z,99299.81
2022-11-05T02:55:00.686Z,99286.84
2022-11-05T02:57:31.381Z,99329.56
2022-11-05T03:00:08.758Z,99325.47
2022-11-05T03:02:37.713Z,99321.09
2022-11-05T03:05:06.916Z,99320.25
2022-11-05T03:08:00.586Z,99332.06
2022-11-05T03:10:32.694Z,99335.41
2022-11-05T03:13:40.681Z,99324.94
2022-11-05T03:16:27.421Z,99333.50
2022-11-05T03:19:07.586Z,99238.78
2022-11-05T03:22:01.794Z,99336.28
2022-11-05T03:24:37.335Z,99306.97
2022-11-05T03:27:14.136Z,99308.75
2022-11-05T03:29:48.539Z,99341.53
2022-11-05T03:32:20.568Z,99238.19
2022-11-05T03:34:56.001Z,99327.00
2022-11-05T03:37:28.329Z,99300.00
2022-11-05T03:40:02.004Z,99339.25
2022-11-05T03:42:36.739Z,99175.19
2022-11-05T03:45:10.172Z,99338.69
2022-11-05T03:47:45.407Z,99315.66
2022-11-05T03:50:28.292Z,99334.47
2022-11-05T03:53:04.431Z,99307.16
2022-11-05T03:56:09.888Z,99327.78
2022-11-05T03:58:44.989Z,99295.31
2022-11-05T04:01:13.787Z,99320.19
2022-11-05T04:03:42.481Z,99315.88
2022-11-05T04:06:30.044Z,99300.53
2022-11-05T04:09:16.832Z,99258.69
2022-11-05T04:12:03.921Z,99280.78
2022-11-05T04:14:32.649Z,99301.34
2022-11-05T04:17:07.226Z,99297.03
2022-11-05T04:19:56.942Z,99301.34
2022-11-05T04:22:45.718Z,99297.16
2022-11-05T04:25:16.339Z,99275.03
2022-11-05T04:27:45.979Z,99273.00
2022-11-05T04:30:19.848Z,99290.19
2022-11-05T04:33:12.282Z,99286.63
2022-11-05T04:35:45.513Z,99299.28
2022-11-05T04:38:24.198Z,99296.75
2022-11-05T04:40:52.940Z,99303.69
2022-11-05T04:43:22.329Z,99312.19
2022-11-05T04:45:51.407Z,99267.47
2022-11-05T04:48:20.300Z,99274.16
2022-11-05T04:50:49.084Z,99279.94
2022-11-05T04:53:17.759Z,99278.09
2022-11-05T04:55:46.353Z,99250.63
2022-11-05T04:58:14.912Z,99225.63
2022-11-05T05:00:43.886Z,99225.38
2022-11-05T05:03:12.822Z,99250.84
2022-11-05T05:05:41.833Z,99288.94
2022-11-05T05:08:10.372Z,99260.06
2022-11-05T05:10:39.064Z,99276.00
2022-11-05T05:13:07.857Z,99276.81
2022-11-05T05:15:38.300Z,99260.44
2022-11-05T05:18:06.881Z,99270.84
2022-11-05T05:20:54.163Z,99274.94
2022-11-05T05:23:22.700Z,99269.81
2022-11-05T05:25:51.566Z,99268.72
2022-11-05T05:28:20.388Z,99285.06
2022-11-05T05:30:49.239Z,99296.81
2022-11-05T05:33:18.230Z,99303.72
2022-11-05T05:35:47.020Z,99270.41
2022-11-05T05:38:15.961Z,99296.00
2022-11-05T05:40:44.947Z,99275.47
2022-11-05T05:43:14.241Z,99294.38
2022-11-05T05:45:43.708Z,99308.19
2022-11-05T05:48:12.779Z,99277.56
2022-11-05T05:50:41.955Z,99300.47
2022-11-05T05:53:10.649Z,99278.38
2022-11-05T05:55:39.990Z,99304.84
2022-11-05T05:58:08.898Z,99270.94
2022-11-05T06:00:37.773Z,99296.22
2022-11-05T06:03:07.421Z,99320.88
2022-11-05T06:05:36.186Z,99325.06
2022-11-05T06:08:04.861Z,99307.22
2022-11-05T06:10:33.563Z,99262.91
2022-11-05T06:13:02.703Z,99321.81
2022-11-05T06:15:35.688Z,99318.25
2022-11-05T06:18:05.702Z,99323.47
2022-11-05T06:20:34.174Z,99341.53
2022-11-05T06:23:02.783Z,99304.56
2022-11-05T06:25:31.448Z,99323.59
2022-11-05T06:28:00.518Z,99321.06
2022-11-05T06:30:29.195Z,99334.84
2022-11-05T06:33:02.335Z,99273.25
2022-11-05T06:35:31.350Z,99278.44
2022-11-05T06:38:02.197Z,99330.63
2022-11-05T06:40:33.858Z,99331.72
2022-11-05T06:43:02.725Z,99360.38
2022-11-05T06:45:31.426Z,99369.19
2022-11-05T06:48:01.066Z,99334.91
2022-11-05T06:50:30.278Z,99350.25
2022-11-05T06:53:02.040Z,99360.66
2022-11-05T06:55:32.768Z,99365.75
2022-11-05T06:58:01.547Z,99355.47
2022-11-05T07:00:30.409Z,99349.50
2022-11-05T07:03:06.579Z,99237.59
2022-11-05T07:05:38.207Z,99351.72
2022-11-05T07:08:07.564Z,99354.47
2022-11-05T07:10:36.376Z,99375.75
2022-11-05T07:13:08.032Z,99370.53
2022-11-05T07:15:38.827Z,99376.41
2022-11-05T07:18:08.344Z,99356.09
2022-11-05T07:20:37.113Z,99351.03
2022-11-05T07:23:08.905Z,99370.81
2022-11-05T07:25:38.250Z,99367.50
2022-11-05T07:28:07.676Z,99380.53
2022-11-05T07:30:37.852Z,99388.28
2022-11-05T07:33:06.708Z,99390.38
2022-11-05T07:35:35.881Z,99341.13
2022-11-05T07:38:04.731Z,99404.38
2022-11-05T07:40:33.549Z,99394.31
2022-11-05T07:43:03.247Z,99303.91
2022-11-05T07:45:33.074Z,99365.38
2022-11-05T07:48:05.341Z,99373.94
2022-11-05T07:50:36.815Z,99372.06
2022-11-05T07:53:13.798Z,99376.41
2022-11-05T07:55:43.205Z,99389.13
2022-11-05T07:58:13.561Z,99344.75
2022-11-05T08:00:43.198Z,99371.97
2022-11-05T08:03:16.062Z,99378.72
2022-11-05T08:05:47.644Z,99388.25
2022-11-05T08:08:19.301Z,99400.22
2022-11-05T08:10:48.811Z,99387.53
2022-11-05T08:13:18.666Z,99381.50
2022-11-05T08:15:47.904Z,99391.28
2022-11-05T08:18:18.836Z,99392.81
2022-11-05T08:20:49.257Z,99383.38
2022-11-05T08:23:18.155Z,99372.38
2022-11-05T08:25:47.024Z,99369.03
2022-11-05T08:28:15.976Z,99380.03
2022-11-05T08:30:53.199Z,99363.06
2022-11-05T08:33:28.720Z,99384.44
2022-11-05T08:36:02.165Z,99386.94
2022-11-05T08:38:31.285Z,99420.50
2022-11-05T08:41:01.931Z,99324.78
2022-11-05T08:43:31.600Z,99249.63
2022-11-05T08:46:03.880Z,99419.59
2022-11-05T08:48:33.007Z,99409.53
2022-11-05T08:51:02.652Z,99393.81
2022-11-05T08:53:34.402Z,99373.63
2022-11-05T08:56:03.280Z,99415.16
2022-11-05T08:58:33.465Z,99355.44
2022-11-05T09:01:05.701Z,99389.84
2022-11-05T09:03:34.725Z,99415.16
2022-11-05T09:06:03.358Z,99398.03
2022-11-05T09:08:32.070Z,99402.34
2022-11-05T09:11:01.130Z,99401.47
2022-11-05T09:13:30.033Z,99413.41
2022-11-05T09:16:00.622Z,99403.06
2022-11-05T09:18:32.177Z,99424.50
2022-11-05T09:21:01.021Z,99418.59
2022-11-05T09:23:29.984Z,99395.53
2022-11-05T09:25:59.140Z,99400.50
2022-11-05T09:28:29.247Z,99409.22
2022-11-05T09:30:58.260Z,99369.28
2022-11-05T09:33:28.871Z,99422.09
2022-11-05T09:36:00.783Z,99264.06
2022-11-05T09:38:29.681Z,99411.00
2022-11-05T09:41:09.641Z,99439.38
2022-11-05T09:43:49.460Z,99373.19
2022-11-05T09:46:25.342Z,99435.97
2022-11-05T09:49:04.961Z,99417.19
2022-11-05T09:51:36.804Z,99415.53
2022-11-05T09:54:06.628Z,99409.53
2022-11-05T09:56:41.444Z,99372.88
2022-11-05T09:59:38.945Z,99445.03
2022-11-05T10:02:35.861Z,99443.25
2022-11-05T10:05:10.239Z,99434.75
2022-11-05T10:07:50.914Z,99454.72
2022-11-05T10:10:40.308Z,99388.72
2022-11-05T10:13:30.509Z,99463.28
2022-11-05T10:16:01.941Z,99466.00
2022-11-05T10:18:41.826Z,99463.41
2022-11-05T10:21:27.806Z,99464.25
2022-11-05T10:24:21.531Z,99433.53
2022-11-05T10:26:53.342Z,99416.28
2022-11-05T10:29:34.269Z,99435.09
2022-11-05T10:32:06.784Z,99432.50
2022-11-05T10:34:38.358Z,99435.16
2022-11-05T10:37:07.276Z,99450.59
2022-11-05T10:39:36.104Z,99453.13
2022-11-05T10:42:25.077Z,99424.00
2022-11-05T10:45:12.348Z,99451.22
2022-11-05T10:47:45.899Z,99441.97
2022-11-05T10:50:29.486Z,99451.34
2022-11-05T10:53:06.452Z,99443.81
2022-11-05T10:55:42.299Z,99429.00
2022-11-05T10:58:16.946Z,99456.47
2022-11-05T11:01:06.845Z,99461.69
2022-11-05T11:03:35.662Z,99458.19
2022-11-05T11:06:26.062Z,99429.97
2022-11-05T11:09:00.940Z,99461.72
2022-11-05T11:11:29.561Z,99465.25
2022-11-05T11:13:58.159Z,99436.00
2022-11-05T11:16:29.499Z,99450.66
2022-11-05T11:19:03.948Z,99464.38
2022-11-05T11:21:33.899Z,99442.09
2022-11-05T11:24:07.375Z,99469.53
2022-11-05T11:26:40.688Z,99476.44
2022-11-05T11:29:14.559Z,99434.50
2022-11-05T11:31:43.380Z,99459.47
2022-11-05T11:34:28.590Z,99448.41
2022-11-05T11:37:14.060Z,99435.56
2022-11-05T11:39:56.667Z,99488.72
2022-11-05T11:42:32.727Z,99462.06
2022-11-05T11:45:08.157Z,99475.81
2022-11-05T11:47:43.848Z,99488.78
2022-11-05T11:50:42.097Z,99501.03
2022-11-05T11:53:35.120Z,99427.44
2022-11-05T11:56:16.925Z,99464.22
2022-11-05T11:58:54.612Z,99476.28
2022-11-05T12:01:50.390Z,99513.06
2022-11-05T12:04:34.234Z,99516.59
2022-11-05T12:07:17.803Z,99517.50
2022-11-05T12:09:49.480Z,99514.00
2022-11-05T12:12:23.126Z,99514.78
2022-11-05T12:14:51.815Z,99518.28
2022-11-05T12:17:26.364Z,99501.81
2022-11-05T12:20:02.475Z,99520.03
2022-11-05T12:23:01.287Z,99528.69
2022-11-05T12:25:37.601Z,99456.00
2022-11-05T12:28:11.921Z,99523.50
2022-11-05T12:31:04.060Z,99527.09
2022-11-05T12:33:56.381Z,99534.84
2022-11-05T12:36:40.096Z,99527.97
2022-11-05T12:39:48.433Z,99512.50
2022-11-05T12:42:46.996Z,99534.84
2022-11-05T12:45:27.855Z,99533.16
2022-11-05T12:48:08.543Z,99529.69
2022-11-05T12:51:05.442Z,99518.53
2022-11-05T12:53:47.629Z,99522.03
2022-11-05T12:56:26.490Z,99509.84
2022-11-05T12:59:19.286Z,99534.03
2022-11-05T13:01:54.987Z,99514.34
2022-11-05T13:04:53.419Z,99463.84
2022-11-05T13:07:31.246Z,99515.16
2022-11-05T13:10:06.913Z,99504.88
2022-11-05T13:12:42.198Z,99512.81
2022-11-05T13:15:22.885Z,99548.00
2022-11-05T13:18:04.005Z,99493.97
2022-11-05T13:20:36.503Z,99499.88
2022-11-05T13:23:16.692Z,99526.59
2022-11-05T13:26:18.472Z,99500.00
2022-11-05T13:28:52.850Z,99548.00
2022-11-05T13:31:28.454Z,99496.56
2022-11-05T13:33:58.005Z,99434.16
2022-11-05T13:36:52.875Z,99505.06
2022-11-05T13:39:36.127Z,99535.03
2022-11-05T13:42:32.122Z,99545.28
2022-11-05T13:45:06.429Z,99547.94
2022-11-05T13:47:38.160Z,99541.84
2022-11-05T13:50:27.778Z,99534.84
2022-11-05T13:53:26.949Z,99530.72
2022-11-05T13:56:33.440Z,99551.50
2022-11-05T13:59:16.944Z,99549.72
2022-11-05T14:02:11.764Z,99554.84
2022-11-05T14:04:45.895Z,99545.34
2022-11-05T14:07:24.906Z,99515.44
2022-11-05T14:10:02.529Z,99483.88
2022-11-05T14:12:36.094Z,99506.91
2022-11-05T14:15:29.468Z,99506.03
2022-11-05T14:18:05.857Z,99546.34
2022-11-05T14:20:34.526Z,99552.47
2022-11-05T14:23:24.564Z,99536.91
2022-11-05T14:26:12.350Z,99544.72
2022-11-05T14:28:47.988Z,99537.13
2022-11-05T14:31:19.339Z,99560.41
2022-11-05T14:34:14.132Z,99550.94
2022-11-05T14:36:46.080Z,99539.06
2022-11-05T14:39:24.804Z,99496.81
2022-11-05T14:42:11.309Z,99522.69
2022-11-05T14:45:02.783Z,99511.66
2022-11-05T14:47:36.722Z,99506.47
2022-11-05T14:50:07.958Z,99554.50
2022-11-05T14:52:38.304Z,99509.06
2022-11-05T14:55:08.202Z,99506.53
2022-11-05T14:57:43.006Z,99542.44
2022-11-05T15:00:42.598Z,99542.41
2022-11-05T15:03:38.584Z,99549.34
2022-11-05T15:06:33.989Z,99534.84
2022-11-05T15:09:17.712Z,99529.81
2022-11-05T15:12:11.534Z,99537.41
2022-11-05T15:14:43.159Z,99532.19
2022-11-05T15:17:20.508Z,99542.59
2022-11-05T15:19:50.099Z,99521.25
2022-11-05T15:22:31.639Z,99549.59
2022-11-05T15:25:01.331Z,99518.78
2022-11-05T15:27:45.014Z,99552.94
2022-11-05T15:30:20.042Z,99508.25
2022-11-05T15:32:49.753Z,99528.97
2022-11-05T15:35:31.596Z,99469.91
2022-11-05T15:38:02.570Z,99534.81
2022-11-05T15:40:33.645Z,99501.47
2022-11-05T15:43:14.525Z,99515.34
2022-11-05T15:45:44.745Z,99533.25
2022-11-05T15:48:20.336Z,99485.13
2022-11-05T15:50:49.273Z,99504.75
2022-11-05T15:53:47.325Z,99532.31
2022-11-05T15:56:29.981Z,99537.56
2022-11-05T15:59:30.051Z,99536.81
2022-11-05T16:02:20.005Z,99508.47
2022-11-05T16:04:49.339Z,99474.16
2022-11-05T16:07:19.062Z,99503.41
2022-11-05T16:09:59.389Z,99512.78
2022-11-05T16:12:36.601Z,99462.34
2022-11-05T16:15:11.425Z,99530.78
2022-11-05T16:17:48.352Z,99530.06
2022-11-05T16:20:26.736Z,99515.53
2022-11-05T16:23:01.558Z,99496.53
2022-11-05T16:25:44.586Z,99527.41
2022-11-05T16:28:28.554Z,99498.19
2022-11-05T16:31:00.140Z,99464.84
2022-11-05T16:33:41.603Z,99517.91
2022-11-05T16:36:10.569Z,99499.09
2022-11-05T16:38:39.647Z,99456.16
2022-11-05T16:41:13.963Z,99519.59
2022-11-05T16:43:53.352Z,99498.22
2022-11-05T16:46:22.567Z,99463.97
2022-11-05T16:48:51.305Z,99482.69
2022-11-05T16:51:23.376Z,99511.88
2022-11-05T16:53:54.995Z,99497.31
2022-11-05T16:56:24.125Z,99477.66
2022-11-05T16:58:52.816Z,99468.22
2022-11-05T17:01:24.003Z,99456.22
2022-11-05T17:03:54.234Z,99458.75
2022-11-05T17:06:23.471Z,99510.19
2022-11-05T17:08:52.476Z,99474.91
2022-11-05T17:11:22.340Z,99490.25
2022-11-05T17:13:51.811Z,99446.63
2022-11-05T17:16:20.707Z,99454.97
2022-11-05T17:18:49.640Z,99467.09
2022-11-05T17:21:18.747Z,99450.81
2022-11-05T17:23:47.825Z,99475.53
2022-11-05T17:26:16.921Z,99442.25
2022-11-05T17:28:45.833Z,99454.00
2022-11-05T17:31:15.664Z,99284.69
2022-11-05T17:33:45.066Z,99476.38
2022-11-05T17:36:16.809Z,99450.47
2022-11-05T17:38:45.806Z,99456.44
2022-11-05T17:41:16.729Z,99469.44
2022-11-05T17:43:46.349Z,99455.53
2022-11-05T17:46:17.277Z,99439.19
2022-11-05T17:48:46.809Z,99422.84
2022-11-05T17:51:19.443Z,99414.28
2022-11-05T17:53:50.108Z,99424.56
2022-11-05T17:56:32.589Z,99417.59
2022-11-05T17:59:03.716Z,99412.44
2022-11-05T18:01:35.504Z,99424.31
2022-11-05T18:04:08.951Z,99420.06
2022-11-05T18:06:41.046Z,99420.94
2022-11-05T18:09:13.146Z,99426.16
2022-11-05T18:11:42.926Z,99382.56
2022-11-05T18:14:11.862Z,99400.41
2022-11-05T18:16:40.874Z,99393.59
2022-11-05T18:19:09.859Z,99379.13
2022-11-05T18:21:38.747Z,99390.16
2022-11-05T18:24:07.705Z,99388.50
2022-11-05T18:26:36.714Z,99408.19
2022-11-05T18:29:06.778Z,99399.50
2022-11-05T18:31:35.703Z,99372.28
2022-11-05T18:34:04.711Z,99364.34
2022-11-05T18:36:34.917Z,99395.09
2022-11-05T18:39:05.557Z,99355.03
2022-11-05T18:41:34.444Z,99373.78
2022-11-05T18:44:04.080Z,99295.97
2022-11-05T18:46:57.079Z,99385.78
2022-11-05T18:49:23.132Z,99380.44
2022-11-05T18:51:52.010Z,99356.41
2022-11-05T18:54:21.069Z,99369.44
2022-11-05T18:56:49.926Z,99347.81
2022-11-05T18:59:36.300Z,99352.94
2022-11-05T19:02:06.522Z,99324.94
2022-11-05T19:04:37.311Z,99335.09
2022-11-05T19:07:07.651Z,99341.75
2022-11-05T19:09:37.836Z,99348.75
2022-11-05T19:12:08.048Z,99358.19
2022-11-05T19:14:37.700Z,99316.19
2022-11-05T19:17:06.672Z,99328.25
2022-11-05T19:19:35.420Z,99328.25
2022-11-05T19:22:05.265Z,99307.63
2022-11-05T19:24:34.111Z,99304.31
2022-11-05T19:27:02.836Z,99293.03
2022-11-05T19:29:31.881Z,99356.44
2022-11-05T19:32:00.743Z,99349.63
2022-11-05T19:34:29.765Z,99296.53
2022-11-05T19:36:58.687Z,99343.84
2022-11-05T19:39:27.290Z,99349.50
2022-11-05T19:42:01.932Z,99307.63
2022-11-05T19:44:31.815Z,99336.63
2022-11-05T19:47:00.618Z,99304.16
2022-11-05T19:49:29.372Z,99333.25
2022-11-05T19:51:58.045Z,99287.84
2022-11-05T19:54:26.823Z,99294.81
2022-11-05T19:56:55.956Z,99319.38
2022-11-05T19:59:24.738Z,99293.03
2022-11-05T20:01:53.539Z,99279.28
2022-11-05T20:04:22.608Z,99186.28
2022-11-05T20:06:51.517Z,99304.16
2022-11-05T20:09:22.480Z,99316.94
2022-11-05T20:11:55.015Z,99289.50
2022-11-05T20:14:25.751Z,99305.72
2022-11-05T20:16:55.021Z,99282.78
2022-11-05T20:19:24.882Z,99285.28
2022-11-05T20:21:53.584Z,99281.88
2022-11-05T20:24:25.475Z,99293.66
2022-11-05T20:26:55.753Z,99262.16
2022-11-05T20:29:30.485Z,99238.97
2022-11-05T20:32:05.002Z,99268.06
2022-11-05T20:34:34.909Z,99259.63
2022-11-05T20:37:03.891Z,99276.59
2022-11-05T20:39:32.858Z,99299.13
2022-11-05T20:42:01.649Z,99280.88
2022-11-05T20:44:30.422Z,99257.78
2022-11-05T20:46:59.264Z,99247.56
2022-11-05T20:49:28.031Z,99274.81
2022-11-05T20:51:56.878Z,99242.19
2022-11-05T20:54:25.893Z,99236.25
2022-11-05T20:56:54.946Z,99243.13
2022-11-05T20:59:24.746Z,99251.78
2022-11-05T21:01:54.137Z,99274.03
2022-11-05T21:04:23.228Z,99243.97
2022-11-05T21:06:52.178Z,99218.34
2022-11-05T21:09:21.496Z,99086.88
2022-11-05T21:12:08.717Z,99238.75
2022-11-05T21:14:39.198Z,99248.09
2022-11-05T21:17:09.706Z,99249.94
2022-11-05T21:19:38.936Z,99154.22
2022-11-05T21:22:08.304Z,99222.47
2022-11-05T21:24:37.045Z,99196.16
2022-11-05T21:27:05.927Z,99235.28
2022-11-05T21:29:35.379Z,99224.88
2022-11-05T21:32:04.519Z,99237.75
2022-11-05T21:34:33.993Z,99177.97
2022-11-05T21:37:06.294Z,99185.72
2022-11-05T21:39:35.704Z,99212.84
2022-11-05T21:42:04.308Z,99214.56
2022-11-05T21:44:33.386Z,99180.41
2022-11-05T21:47:02.269Z,99210.25
2022-11-05T21:49:30.916Z,99217.97
2022-11-05T21:52:18.099Z,99234.13
2022-11-05T21:55:05.885Z,99189.03
2022-11-05T21:57:53.636Z,99210.25
2022-11-05T22:00:22.577Z,99228.09
2022-11-05T22:02:51.386Z,99207.00
2022-11-05T22:05:20.331Z,99226.41
2022-11-05T22:07:49.136Z,99228.03
2022-11-05T22:10:18.091Z,99201.56
2022-11-05T22:12:47.276Z,99220.38
2022-11-05T22:15:16.016Z,99232.34
2022-11-05T22:17:47.113Z,99199.72
2022-11-05T22:20:17.323Z,99129.91
2022-11-05T22:22:49.333Z,99207.50
2022-11-05T22:25:18.076Z,99212.63
2022-11-05T22:27:46.935Z,99227.09
2022-11-05T22:30:16.043Z,99207.50
2022-11-05T22:32:47.527Z,99079.50
2022-11-05T22:35:16.299Z,99215.13
2022-11-05T22:37:45.124Z,99177.47
2022-11-05T22:40:13.840Z,99192.81
2022-11-05T22:42:42.861Z,99177.34
2022-11-05T22:45:12.101Z,99223.66
2022-11-05T22:47:42.858Z,99207.25
2022-11-05T22:50:11.896Z,99209.72
2022-11-05T22:52:40.703Z,99191.91
2022-11-05T22:55:09.655Z,99203.00
2022-11-05T22:57:38.382Z,99197.84
2022-11-05T23:00:17.778Z,99179.88
2022-11-05T23:02:46.651Z,99204.69
2022-11-05T23:05:16.629Z,99217.53
2022-11-05T23:08:22.377Z,99202.91
2022-11-05T23:11:29.130Z,99191.09
2022-11-05T23:13:57.918Z,99211.44
2022-11-05T23:16:44.675Z,99155.91
2022-11-05T23:19:32.289Z,99203.06
2022-11-05T23:22:19.218Z,99185.13
2022-11-05T23:24:48.955Z,99195.28
2022-11-05T23:27:17.634Z,99197.84
2022-11-05T23:29:46.371Z,99207.22
2022-11-05T23:32:26.835Z,99162.97
2022-11-05T23:34:57.428Z,99209.00
2022-11-05T23:37:50.664Z,99210.59
2022-11-05T23:40:28.156Z,99190.06
2022-11-05T23:43:16.522Z,99140.66
2022-11-05T23:46:04.076Z,99212.31
2022-11-05T23:48:35.476Z,99223.50
2022-11-05T23:51:11.552Z,99209.84
2022-11-05T23:53:42.236Z,99117.66
2022-11-05T23:56:14.297Z,99200.34
2022-11-05T23:58:43.658Z,99193.56
